Time;durP1;ratioP1;P1;durP2;ratioP2;P2;SDS_P1;SDS_P2;PMS_P1;PMS_P2;Temp;Humidity;BMP_temperature;BMP_pressure;BME280_temperature;BME280_humidity;BME280_pressure;Samples;Min_cycle;Max_cycle;Signal;HPM_P1;HPM_P2
2022/03/10 00:02:08;;;;;;;18.00;6.95;;;5.10;99.90;;;;;;5026132;28;20034;-72
2022/03/10 00:04:35;;;;;;;17.45;6.82;;;5.20;99.90;;;;;;5024828;28;20033;-73
2022/03/10 00:07:02;;;;;;;11.70;5.65;;;5.10;99.90;;;;;;5025915;28;20033;-74
2022/03/10 00:09:29;;;;;;;14.10;5.85;;;5.00;99.90;;;;;;5026136;28;20477;-74
2022/03/10 00:11:55;;;;;;;17.70;6.13;;;5.00;99.90;;;;;;5026043;28;20037;-74
2022/03/10 00:14:25;;;;;;;12.07;5.95;;;4.90;99.90;;;;;;5025689;28;20025;-73
2022/03/10 00:16:54;;;;;;;14.82;5.55;;;4.80;99.90;;;;;;5025280;28;20097;-75
2022/03/10 00:19:21;;;;;;;12.57;5.53;;;4.80;99.90;;;;;;5024611;28;20026;-75
2022/03/10 00:21:48;;;;;;;12.55;5.38;;;4.80;99.90;;;;;;5025575;28;20090;-72
2022/03/10 00:24:14;;;;;;;14.52;5.78;;;4.80;99.90;;;;;;5025802;28;20022;-73
2022/03/10 00:26:43;;;;;;;18.95;7.07;;;4.90;99.90;;;;;;5025734;28;20098;-72
2022/03/10 00:29:09;;;;;;;15.38;5.50;;;4.80;99.90;;;;;;5025423;28;20026;-73
2022/03/10 00:31:41;;;;;;;15.68;6.05;;;4.80;99.90;;;;;;5008136;28;20032;-74
2022/03/10 00:34:07;;;;;;;21.15;6.05;;;4.80;99.90;;;;;;5008009;28;20045;-72
2022/03/10 00:36:33;;;;;;;18.02;5.88;;;4.80;99.90;;;;;;5021412;28;20037;-74
2022/03/10 00:38:59;;;;;;;15.80;5.85;;;4.70;99.90;;;;;;5045593;28;20067;-72
2022/03/10 00:41:50;;;;;;;12.38;5.10;;;4.60;99.90;;;;;;5045464;28;20022;-73
2022/03/10 00:44:17;;;;;;;14.82;6.00;;;4.70;99.90;;;;;;5037212;28;20046;-73
2022/03/10 00:46:42;;;;;;;20.10;5.90;;;4.70;99.90;;;;;;5045530;28;20083;-73
2022/03/10 00:49:15;;;;;;;12.38;5.07;;;4.70;99.90;;;;;;5031001;28;20038;-74
2022/03/10 00:51:40;;;;;;;10.40;5.00;;;4.60;99.90;;;;;;5025702;28;20030;-72
2022/03/10 00:54:06;;;;;;;17.48;6.22;;;4.60;99.90;;;;;;5008175;28;20022;-72
2022/03/10 00:56:31;;;;;;;16.42;5.72;;;4.50;99.90;;;;;;5024961;28;20029;-72
2022/03/10 00:58:57;;;;;;;16.73;6.38;;;4.50;99.90;;;;;;5025607;28;20033;-74
2022/03/10 01:01:23;;;;;;;9.25;5.20;;;4.50;99.90;;;;;;5024319;28;20026;-73
2022/03/10 01:03:49;;;;;;;13.65;5.20;;;4.50;99.90;;;;;;5026963;28;20120;-73
2022/03/10 01:06:15;;;;;;;17.70;6.22;;;4.50;99.90;;;;;;5045521;28;20041;-73
2022/03/10 01:08:41;;;;;;;15.13;6.10;;;4.40;99.90;;;;;;5044687;28;20059;-73
2022/03/10 01:11:06;;;;;;;15.98;5.70;;;4.50;99.90;;;;;;5044608;28;20029;-73
2022/03/10 01:13:32;;;;;;;13.70;5.18;;;4.50;99.90;;;;;;5044985;28;20030;-73
2022/03/10 01:15:58;;;;;;;11.85;5.63;;;4.60;99.90;;;;;;5026684;28;20048;-74
2022/03/10 01:18:24;;;;;;;13.02;5.30;;;4.50;99.90;;;;;;5044355;28;20072;-73
2022/03/10 01:20:50;;;;;;;16.67;6.95;;;4.50;99.90;;;;;;5044675;28;20033;-73
2022/03/10 01:23:16;;;;;;;15.82;6.35;;;4.40;99.90;;;;;;5044212;28;20026;-72
2022/03/10 01:25:41;;;;;;;17.20;6.93;;;4.40;99.90;;;;;;5026502;28;20033;-72
2022/03/10 01:28:07;;;;;;;10.27;5.50;;;4.30;99.90;;;;;;5038416;28;20022;-73
2022/03/10 01:30:34;;;;;;;17.65;6.15;;;4.30;99.90;;;;;;5024721;28;20030;-76
2022/03/10 01:33:00;;;;;;;13.40;6.00;;;4.30;99.90;;;;;;5024729;28;20025;-74
2022/03/10 01:35:36;;;;;;;15.80;6.85;;;4.30;99.90;;;;;;5025428;28;20065;-75
2022/03/10 01:38:02;;;;;;;17.17;6.38;;;4.20;99.90;;;;;;5028417;28;20025;-73
2022/03/10 01:40:28;;;;;;;18.25;6.55;;;4.20;99.90;;;;;;5027692;28;20021;-73
2022/03/10 01:42:54;;;;;;;24.98;6.82;;;4.20;99.90;;;;;;5034106;28;20025;-73
2022/03/10 01:45:20;;;;;;;12.90;5.63;;;4.20;99.90;;;;;;5022828;28;20085;-74
2022/03/10 01:48:04;;;;;;;10.73;5.53;;;4.20;99.90;;;;;;5044340;28;20037;-75
2022/03/10 01:50:43;;;;;;;18.10;7.63;;;4.10;99.90;;;;;;5048512;28;20026;-74
2022/03/10 01:53:09;;;;;;;19.17;6.78;;;4.10;99.90;;;;;;5048129;28;20037;-74
2022/03/10 01:55:35;;;;;;;15.10;6.38;;;4.00;99.90;;;;;;5048584;28;20021;-71
2022/03/10 01:58:01;;;;;;;19.52;6.97;;;4.00;99.90;;;;;;5048250;28;20025;-72
2022/03/10 02:00:27;;;;;;;15.23;5.65;;;4.00;99.90;;;;;;5048271;28;20025;-74
2022/03/10 02:02:52;;;;;;;16.92;7.40;;;4.00;99.90;;;;;;5048703;28;20036;-75
2022/03/10 02:05:19;;;;;;;18.60;6.30;;;3.90;99.90;;;;;;5048429;28;20037;-74
2022/03/10 02:10:29;;;;;;;25.05;6.55;;;3.90;99.90;;;;;;5048301;28;20052;-73
2022/03/10 02:12:56;;;;;;;20.58;6.68;;;3.90;99.90;;;;;;5047994;28;20030;-74
2022/03/10 02:18:09;;;;;;;14.60;6.45;;;3.80;99.90;;;;;;5048236;28;20033;-76
2022/03/10 02:20:36;;;;;;;14.10;5.57;;;3.80;99.90;;;;;;5047633;28;20049;-74
2022/03/10 02:23:03;;;;;;;13.20;5.88;;;3.70;99.90;;;;;;5047889;28;20068;-74
2022/03/10 02:25:29;;;;;;;12.68;6.13;;;3.70;99.90;;;;;;5047876;28;20034;-74
2022/03/10 02:27:56;;;;;;;12.73;5.55;;;3.70;99.90;;;;;;5047439;28;20021;-75
2022/03/10 02:30:24;;;;;;;16.83;6.53;;;3.70;99.90;;;;;;5030142;28;20052;-74
2022/03/10 02:32:50;;;;;;;18.30;6.18;;;3.70;99.90;;;;;;5048113;28;20105;-75
2022/03/10 02:35:17;;;;;;;14.32;6.63;;;3.70;99.90;;;;;;5029805;28;20540;-75
2022/03/10 02:37:43;;;;;;;18.75;6.10;;;3.70;99.90;;;;;;5047911;28;20030;-74
2022/03/10 02:40:10;;;;;;;14.93;6.57;;;3.70;99.90;;;;;;5047650;28;20036;-72
2022/03/10 02:42:36;;;;;;;12.77;6.20;;;3.70;99.90;;;;;;5047393;28;20021;-73
2022/03/10 02:45:06;;;;;;;19.33;5.32;;;3.70;99.90;;;;;;5047376;28;20060;-73
2022/03/10 02:47:32;;;;;;;15.20;6.13;;;3.60;99.90;;;;;;5047414;28;20465;-73
2022/03/10 02:49:58;;;;;;;15.30;6.20;;;3.60;99.90;;;;;;5027345;28;20036;-74
2022/03/10 02:52:24;;;;;;;13.57;6.50;;;3.60;99.90;;;;;;5035496;28;20120;-74
2022/03/10 02:54:51;;;;;;;11.93;6.22;;;3.60;99.90;;;;;;5047522;28;20036;-73
2022/03/10 02:57:29;;;;;;;14.35;6.30;;;3.50;99.90;;;;;;5029465;28;20053;-75
2022/03/10 02:59:54;;;;;;;27.42;7.35;;;3.50;99.90;;;;;;5046005;28;20025;-75
2022/03/10 03:02:20;;;;;;;18.35;7.43;;;3.40;99.90;;;;;;5029448;28;20045;-74
2022/03/10 03:04:55;;;;;;;17.60;6.25;;;3.40;99.90;;;;;;5030673;28;20110;-74
2022/03/10 03:07:21;;;;;;;20.15;8.10;;;3.40;99.90;;;;;;5047168;28;20029;-74
2022/03/10 03:09:47;;;;;;;13.55;7.03;;;3.40;99.90;;;;;;5028912;28;20435;-72
2022/03/10 03:12:12;;;;;;;21.25;8.18;;;3.30;99.90;;;;;;5046304;28;20029;-74
2022/03/10 03:14:38;;;;;;;16.50;8.38;;;3.30;99.90;;;;;;5029051;28;20030;-72
2022/03/10 03:17:04;;;;;;;18.50;7.97;;;3.20;99.90;;;;;;5046079;28;20025;-73
2022/03/10 03:19:29;;;;;;;18.33;7.70;;;3.20;99.90;;;;;;5046539;28;20032;-73
2022/03/10 03:21:55;;;;;;;17.17;6.82;;;3.10;99.90;;;;;;5046599;28;20061;-73
2022/03/10 03:24:22;;;;;;;15.40;6.20;;;3.10;99.90;;;;;;5046133;28;20029;-73
2022/03/10 03:26:48;;;;;;;17.55;6.68;;;3.10;99.90;;;;;;5028557;28;20037;-72
2022/03/10 03:29:13;;;;;;;16.20;6.10;;;3.00;99.90;;;;;;5027885;28;20064;-72
2022/03/10 03:31:39;;;;;;;15.50;6.53;;;3.00;99.90;;;;;;5045541;28;20520;-74
2022/03/10 03:34:10;;;;;;;15.27;5.68;;;2.90;99.90;;;;;;5046728;28;20029;-73
2022/03/10 03:36:44;;;;;;;13.25;5.80;;;2.90;99.90;;;;;;5046294;28;20033;-73
2022/03/10 03:39:10;;;;;;;21.15;6.38;;;2.90;99.90;;;;;;5028463;28;20030;-73
2022/03/10 03:41:36;;;;;;;15.75;5.95;;;2.90;99.90;;;;;;5046673;28;20037;-72
2022/03/10 03:44:02;;;;;;;14.10;5.63;;;2.90;99.90;;;;;;5045990;28;20049;-71
2022/03/10 03:46:28;;;;;;;16.80;6.82;;;2.90;99.90;;;;;;5046193;28;20385;-73
2022/03/10 03:48:55;;;;;;;13.55;6.30;;;2.90;99.90;;;;;;5046633;28;20033;-73
2022/03/10 03:51:21;;;;;;;20.52;6.47;;;2.90;99.90;;;;;;5046110;28;20025;-73
2022/03/10 03:53:47;;;;;;;14.23;6.70;;;3.00;99.90;;;;;;5028801;28;20044;-74
2022/03/10 03:56:13;;;;;;;16.38;6.32;;;3.00;99.90;;;;;;5046327;28;20466;-74
2022/03/10 03:58:38;;;;;;;22.70;7.70;;;2.90;99.90;;;;;;5044873;28;20021;-73
2022/03/10 04:01:04;;;;;;;17.58;6.63;;;2.90;99.90;;;;;;5028271;28;20025;-73
2022/03/10 04:03:30;;;;;;;20.92;6.20;;;2.90;99.90;;;;;;5045820;28;20041;-74
2022/03/10 04:05:55;;;;;;;15.98;5.53;;;2.90;99.90;;;;;;5045622;28;20053;-73
2022/03/10 04:08:21;;;;;;;16.48;6.20;;;2.90;99.90;;;;;;5046293;28;20442;-74
2022/03/10 04:10:47;;;;;;;13.95;5.95;;;2.80;99.90;;;;;;5045901;28;20041;-73
2022/03/10 04:13:13;;;;;;;14.70;6.43;;;2.80;99.90;;;;;;5027685;28;20034;-73
2022/03/10 04:15:39;;;;;;;12.30;5.57;;;2.80;99.90;;;;;;5028247;28;20034;-72
2022/03/10 04:18:14;;;;;;;16.75;5.97;;;2.70;99.90;;;;;;5045698;28;20053;-73
2022/03/10 04:20:39;;;;;;;17.83;6.93;;;2.70;99.90;;;;;;5027632;28;20018;-73
2022/03/10 04:23:05;;;;;;;12.48;5.65;;;2.60;99.90;;;;;;5028063;28;20035;-73
2022/03/10 04:25:30;;;;;;;13.30;5.43;;;2.50;99.90;;;;;;5027911;28;20033;-73
2022/03/10 04:27:56;;;;;;;16.77;6.38;;;2.50;99.90;;;;;;5045354;28;20036;-72
2022/03/10 04:30:38;;;;;;;15.00;5.95;;;2.40;99.90;;;;;;5028030;28;20030;-74
2022/03/10 04:33:04;;;;;;;17.52;6.28;;;2.40;99.90;;;;;;5027461;28;20040;-72
2022/03/10 04:35:29;;;;;;;12.30;5.50;;;2.40;99.90;;;;;;5045504;28;20022;-73
2022/03/10 04:37:55;;;;;;;21.17;6.88;;;2.40;99.90;;;;;;5027943;28;20052;-72
2022/03/10 04:40:23;;;;;;;22.75;6.90;;;2.30;99.90;;;;;;5039783;28;20029;-72
2022/03/10 04:42:51;;;;;;;13.00;5.07;;;2.30;99.90;;;;;;5041531;28;20057;-71
2022/03/10 04:45:17;;;;;;;15.60;6.18;;;2.30;99.90;;;;;;5045242;28;20054;-72
2022/03/10 04:47:42;;;;;;;18.38;5.85;;;2.20;99.90;;;;;;5045267;28;20025;-72
2022/03/10 04:50:10;;;;;;;13.43;5.60;;;2.20;99.90;;;;;;5045165;28;20026;-72
2022/03/10 04:52:36;;;;;;;15.23;6.00;;;2.20;99.90;;;;;;5045207;28;20029;-73
2022/03/10 04:55:02;;;;;;;16.05;6.30;;;2.20;99.90;;;;;;5044788;28;20028;-71
2022/03/10 04:57:28;;;;;;;14.82;6.50;;;2.20;99.90;;;;;;5044246;28;20477;-72
2022/03/10 04:59:53;;;;;;;13.50;5.78;;;2.20;99.90;;;;;;5017325;28;20026;-72
2022/03/10 05:02:19;;;;;;;11.35;5.07;;;2.20;99.90;;;;;;5044708;28;20033;-75
2022/03/10 05:04:44;;;;;;;15.00;6.45;;;2.30;99.90;;;;;;5045146;28;20034;-73
2022/03/10 05:07:10;;;;;;;12.25;5.28;;;2.20;99.90;;;;;;5026868;28;20823;-74
2022/03/10 05:09:36;;;;;;;15.88;6.45;;;2.20;99.90;;;;;;5044872;28;20036;-72
2022/03/10 05:12:02;;;;;;;23.33;6.60;;;2.20;99.90;;;;;;5027193;28;20021;-73
2022/03/10 05:14:28;;;;;;;15.13;5.90;;;2.30;99.90;;;;;;5044463;28;20033;-75
2022/03/10 05:16:53;;;;;;;12.65;6.13;;;2.30;99.90;;;;;;5045201;28;20037;-73
2022/03/10 05:19:29;;;;;;;15.70;5.85;;;2.30;99.90;;;;;;5042044;28;20064;-74
2022/03/10 05:21:56;;;;;;;18.38;6.45;;;2.30;99.90;;;;;;5023240;28;20034;-73
2022/03/10 05:24:22;;;;;;;9.95;5.22;;;2.30;99.90;;;;;;5025565;28;20037;-73
2022/03/10 05:26:47;;;;;;;22.83;7.05;;;2.30;99.90;;;;;;5044295;28;20049;-74
2022/03/10 05:29:25;;;;;;;15.90;5.30;;;2.30;99.90;;;;;;5044288;28;20033;-76
2022/03/10 05:31:51;;;;;;;17.83;6.18;;;2.20;99.90;;;;;;5045153;28;20080;-74
2022/03/10 05:34:17;;;;;;;18.15;6.15;;;2.20;99.90;;;;;;5044946;28;20029;-74
2022/03/10 05:36:42;;;;;;;14.80;6.47;;;2.20;99.90;;;;;;5043252;28;20025;-73
2022/03/10 05:39:17;;;;;;;18.27;4.97;;;2.10;99.90;;;;;;5010661;28;20045;-73
2022/03/10 05:41:43;;;;;;;13.10;5.93;;;2.10;99.90;;;;;;5024469;28;20471;-73
2022/03/10 05:44:09;;;;;;;14.10;5.45;;;2.10;99.90;;;;;;5022869;28;20076;-72
2022/03/10 05:46:34;;;;;;;11.63;5.40;;;2.10;99.90;;;;;;5023380;28;20033;-73
2022/03/10 05:49:03;;;;;;;13.50;5.97;;;2.10;99.90;;;;;;5043990;28;20462;-76
2022/03/10 05:51:28;;;;;;;12.57;5.95;;;2.10;99.90;;;;;;5026077;28;20025;-74
2022/03/10 05:53:55;;;;;;;13.05;5.32;;;2.10;99.90;;;;;;5044996;28;20041;-73
2022/03/10 05:56:21;;;;;;;13.82;5.97;;;2.10;99.90;;;;;;5044363;28;20029;-74
2022/03/10 05:58:47;;;;;;;11.00;5.03;;;2.00;99.90;;;;;;5026757;28;20447;-72
2022/03/10 06:01:14;;;;;;;15.35;5.50;;;2.00;99.90;;;;;;5044743;28;20029;-72
2022/03/10 06:03:41;;;;;;;13.40;6.47;;;2.00;99.90;;;;;;5026655;28;20029;-73
2022/03/10 06:06:06;;;;;;;16.75;4.70;;;2.00;99.90;;;;;;5026121;28;20068;-73
2022/03/10 06:08:32;;;;;;;13.77;5.65;;;2.00;99.90;;;;;;5038510;28;20029;-72
2022/03/10 06:10:58;;;;;;;14.23;5.35;;;2.10;99.90;;;;;;5037795;28;20040;-71
2022/03/10 06:13:24;;;;;;;13.02;5.18;;;2.10;99.90;;;;;;5040839;28;20025;-72
2022/03/10 06:15:50;;;;;;;8.73;4.68;;;2.20;99.90;;;;;;5044553;28;20059;-74
2022/03/10 06:18:20;;;;;;;17.48;5.63;;;2.20;99.90;;;;;;5043499;28;20028;-73
2022/03/10 06:20:45;;;;;;;13.48;5.30;;;2.20;99.90;;;;;;5044336;28;20014;-72
2022/03/10 06:23:11;;;;;;;11.48;5.05;;;2.20;99.90;;;;;;5047554;28;20048;-71
2022/03/10 06:25:37;;;;;;;11.07;5.43;;;2.20;99.90;;;;;;5046994;28;20369;-73
2022/03/10 06:28:07;;;;;;;13.05;4.78;;;2.10;99.90;;;;;;5046623;28;20032;-73
2022/03/10 06:30:34;;;;;;;12.50;5.45;;;2.20;99.90;;;;;;5035323;28;20073;-75
2022/03/10 06:33:00;;;;;;;12.10;4.90;;;2.30;99.90;;;;;;5027478;28;20021;-72
2022/03/10 06:35:26;;;;;;;13.70;5.65;;;2.30;99.90;;;;;;5022167;28;20033;-73
2022/03/10 06:37:51;;;;;;;12.15;5.03;;;2.30;99.90;;;;;;5047296;28;20524;-73
2022/03/10 06:40:17;;;;;;;16.38;5.82;;;2.40;99.90;;;;;;5042511;28;20107;-73
2022/03/10 06:42:43;;;;;;;12.68;4.82;;;2.40;99.90;;;;;;5041352;28;20033;-73
2022/03/10 06:45:09;;;;;;;12.45;5.43;;;2.40;99.90;;;;;;5045932;28;20053;-73
2022/03/10 06:47:34;;;;;;;17.83;6.28;;;2.40;99.90;;;;;;5026024;28;20162;-72
2022/03/10 06:50:07;;;;;;;13.07;5.45;;;2.50;99.90;;;;;;5022178;28;20022;-74
2022/03/10 06:52:34;;;;;;;17.23;5.97;;;2.50;99.90;;;;;;5019518;28;20022;-74
2022/03/10 06:54:59;;;;;;;11.27;6.03;;;2.60;99.90;;;;;;5033677;28;20049;-74
2022/03/10 06:57:25;;;;;;;9.30;4.63;;;2.70;99.90;;;;;;5046745;28;20029;-74
2022/03/10 06:59:50;;;;;;;17.40;6.63;;;2.70;99.90;;;;;;5043891;28;20040;-75
2022/03/10 07:02:17;;;;;;;10.75;5.43;;;2.80;99.90;;;;;;5046122;28;20073;-72
2022/03/10 07:04:42;;;;;;;17.60;5.95;;;2.80;99.90;;;;;;5047034;28;20032;-73
2022/03/10 07:07:08;;;;;;;13.60;6.32;;;2.90;99.90;;;;;;5037080;28;20030;-73
2022/03/10 07:09:34;;;;;;;15.73;6.43;;;2.90;99.90;;;;;;5046145;28;20086;-72
2022/03/10 07:12:00;;;;;;;13.98;5.22;;;3.00;99.90;;;;;;5046985;28;20025;-73
2022/03/10 07:14:26;;;;;;;10.57;5.63;;;3.10;99.90;;;;;;5046898;28;20030;-73
2022/03/10 07:16:52;;;;;;;9.98;4.68;;;3.20;99.90;;;;;;5038105;28;20026;-75
2022/03/10 07:19:18;;;;;;;13.00;5.25;;;3.20;99.90;;;;;;5042995;28;20022;-73
2022/03/10 07:21:44;;;;;;;13.82;4.00;;;3.40;99.90;;;;;;5040382;28;20088;-72
2022/03/10 07:24:10;;;;;;;8.18;4.07;;;3.50;99.90;;;;;;5040141;28;20850;-73
2022/03/10 07:26:36;;;;;;;13.90;5.72;;;3.60;99.90;;;;;;5044969;28;20033;-74
2022/03/10 07:29:03;;;;;;;9.98;4.60;;;3.70;99.90;;;;;;5028378;28;20040;-74
2022/03/10 07:31:29;;;;;;;11.45;5.53;;;3.80;99.90;;;;;;5043299;28;20893;-73
2022/03/10 07:33:56;;;;;;;11.73;5.05;;;3.90;99.90;;;;;;5029680;28;20030;-73
2022/03/10 07:36:28;;;;;;;15.02;5.80;;;4.00;99.90;;;;;;5035722;28;20385;-75
2022/03/10 07:38:55;;;;;;;11.23;5.50;;;4.10;99.90;;;;;;5026752;28;20037;-74
2022/03/10 07:41:21;;;;;;;11.25;4.88;;;4.20;99.90;;;;;;5030508;28;20022;-74
2022/03/10 07:43:48;;;;;;;11.73;4.95;;;4.30;99.90;;;;;;5024466;28;20457;-72
2022/03/10 07:46:13;;;;;;;13.73;5.97;;;4.50;99.90;;;;;;5026412;28;20040;-72
2022/03/10 07:48:39;;;;;;;14.80;5.22;;;4.60;99.90;;;;;;5028287;28;20032;-72
2022/03/10 07:51:05;;;;;;;11.13;3.75;;;4.80;99.90;;;;;;5045170;28;20045;-74
2022/03/10 07:53:31;;;;;;;10.40;5.22;;;5.00;99.90;;;;;;5045518;28;20037;-73
2022/03/10 07:55:56;;;;;;;9.60;4.43;;;5.30;99.90;;;;;;5046056;28;20041;-72
2022/03/10 07:58:25;;;;;;;12.15;4.68;;;5.50;99.90;;;;;;5045691;28;20025;-73
2022/03/10 08:00:57;;;;;;;11.80;4.90;;;5.90;99.90;;;;;;5045186;28;20026;-74
2022/03/10 08:03:23;;;;;;;13.07;4.88;;;6.30;99.90;;;;;;5028257;28;20025;-74
2022/03/10 08:05:50;;;;;;;16.30;5.25;;;6.50;99.90;;;;;;5040103;28;20056;-73
2022/03/10 08:08:17;;;;;;;9.98;4.95;;;6.70;99.90;;;;;;5029871;28;20374;-73
2022/03/10 08:10:43;;;;;;;11.32;5.35;;;6.90;99.90;;;;;;5025885;28;20038;-73
2022/03/10 08:13:08;;;;;;;11.93;4.32;;;7.10;99.90;;;;;;5025730;28;20022;-74
2022/03/10 08:15:34;;;;;;;11.45;4.85;;;7.30;99.90;;;;;;5045959;28;20044;-73
2022/03/10 08:17:59;;;;;;;10.57;4.88;;;7.60;99.90;;;;;;5045618;28;20029;-74
2022/03/10 08:20:26;;;;;;;12.48;4.70;;;7.90;99.90;;;;;;5039774;28;20093;-73
2022/03/10 08:22:51;;;;;;;11.38;4.35;;;8.00;99.90;;;;;;5016348;28;20030;-74
2022/03/10 08:25:21;;;;;;;10.20;4.68;;;8.20;99.90;;;;;;5029154;28;20050;-72
2022/03/10 08:27:47;;;;;;;14.30;4.88;;;8.40;99.90;;;;;;5038038;28;20108;-74
2022/03/10 08:30:14;;;;;;;14.85;4.18;;;8.50;99.90;;;;;;5044503;28;20037;-73
2022/03/10 08:32:43;;;;;;;9.95;5.55;;;8.60;99.90;;;;;;5039294;28;20021;-72
2022/03/10 08:35:08;;;;;;;16.20;4.95;;;8.80;99.90;;;;;;5031649;28;20033;-73
2022/03/10 08:37:34;;;;;;;10.10;4.47;;;9.00;99.90;;;;;;5007029;28;20105;-75
2022/03/10 08:40:00;;;;;;;12.35;4.60;;;9.20;99.90;;;;;;5006425;28;20021;-73
2022/03/10 08:42:28;;;;;;;8.63;3.92;;;9.10;99.90;;;;;;5026460;28;20033;-74
2022/03/10 08:44:54;;;;;;;8.52;4.20;;;9.20;99.90;;;;;;5039587;28;20049;-74
2022/03/10 08:47:23;;;;;;;11.43;5.10;;;9.20;99.90;;;;;;5029756;28;20030;-75
2022/03/10 08:49:50;;;;;;;14.45;4.78;;;9.20;99.90;;;;;;5041943;28;20093;-74
2022/03/10 08:52:39;;;;;;;9.68;4.38;;;9.30;99.90;;;;;;5043872;28;20033;-73
2022/03/10 08:55:10;;;;;;;8.50;4.45;;;9.50;99.90;;;;;;5042317;28;20053;-73
2022/03/10 08:57:41;;;;;;;8.77;3.80;;;9.70;99.90;;;;;;5045127;28;20077;-73
2022/03/10 09:00:09;;;;;;;17.08;5.22;;;9.70;99.90;;;;;;5020221;28;20045;-73
2022/03/10 09:02:35;;;;;;;11.93;3.80;;;9.80;99.90;;;;;;5043752;28;20030;-73
2022/03/10 09:05:08;;;;;;;9.32;4.28;;;9.90;99.90;;;;;;5044882;28;20128;-73
2022/03/10 09:07:34;;;;;;;9.20;4.10;;;10.00;99.90;;;;;;5022227;28;20101;-73
2022/03/10 09:10:00;;;;;;;11.57;5.00;;;10.10;99.90;;;;;;5029968;28;20041;-74
2022/03/10 09:12:27;;;;;;;8.27;4.13;;;10.20;99.90;;;;;;5035717;28;20030;-74
2022/03/10 09:14:53;;;;;;;12.45;4.13;;;10.30;99.90;;;;;;5044269;28;20025;-75
2022/03/10 09:17:19;;;;;;;12.23;4.97;;;10.20;99.90;;;;;;5013986;28;20093;-73
2022/03/10 09:19:45;;;;;;;9.90;4.82;;;10.20;99.90;;;;;;5027762;28;20053;-74
2022/03/10 09:22:11;;;;;;;10.63;5.00;;;10.20;99.90;;;;;;5035463;28;20022;-73
2022/03/10 09:24:36;;;;;;;11.63;5.85;;;10.30;99.90;;;;;;5044430;28;20040;-73
2022/03/10 09:27:02;;;;;;;11.90;4.45;;;10.50;99.90;;;;;;5043844;28;20046;-75
2022/03/10 09:29:28;;;;;;;7.75;3.72;;;10.70;99.90;;;;;;5021125;28;20033;-75
2022/03/10 09:31:57;;;;;;;8.60;4.43;;;10.80;99.90;;;;;;5011167;28;20030;-75
2022/03/10 09:34:23;;;;;;;10.88;4.63;;;11.00;99.90;;;;;;5033506;28;20029;-75
2022/03/10 09:36:49;;;;;;;8.48;3.83;;;11.10;99.90;;;;;;5041747;28;20108;-74
2022/03/10 09:39:17;;;;;;;7.30;3.95;;;11.10;99.90;;;;;;5024725;28;20022;-73
2022/03/10 09:41:43;;;;;;;7.82;3.75;;;11.30;99.90;;;;;;5043580;28;20081;-74
2022/03/10 09:44:21;;;;;;;10.40;4.00;;;11.40;99.90;;;;;;5042074;28;20597;-72
2022/03/10 09:46:50;;;;;;;8.48;3.72;;;11.60;99.90;;;;;;5044054;28;20077;-75
2022/03/10 09:49:27;;;;;;;12.00;4.25;;;11.80;99.90;;;;;;5025292;28;20523;-74
2022/03/10 09:51:56;;;;;;;12.50;4.68;;;12.10;99.90;;;;;;5040457;28;20029;-75
2022/03/10 09:54:24;;;;;;;7.38;3.70;;;12.30;99.90;;;;;;5020109;28;20033;-75
2022/03/10 09:56:50;;;;;;;7.05;3.67;;;12.40;99.90;;;;;;5038182;28;20030;-75
2022/03/10 09:59:20;;;;;;;10.80;4.38;;;12.50;99.90;;;;;;5036143;28;20073;-72
2022/03/10 10:01:46;;;;;;;9.38;4.00;;;12.60;99.90;;;;;;5039871;28;20026;-75
2022/03/10 10:04:11;;;;;;;9.10;3.63;;;12.60;99.90;;;;;;5042297;28;20095;-71
2022/03/10 10:07:03;;;;;;;12.35;4.00;;;12.70;99.90;;;;;;5045150;28;20049;-74
2022/03/10 10:09:53;;;;;;;5.72;2.90;;;12.80;99.90;;;;;;5046115;28;20029;-74
2022/03/10 10:12:22;;;;;;;7.63;3.47;;;12.90;99.90;;;;;;5048261;28;20109;-73
2022/03/10 10:14:49;;;;;;;13.63;3.55;;;13.00;99.90;;;;;;5047499;28;20377;-73
2022/03/10 10:17:16;;;;;;;5.47;3.00;;;13.20;99.90;;;;;;5047229;28;20452;-73
2022/03/10 10:19:42;;;;;;;7.43;3.67;;;13.30;99.90;;;;;;5047960;28;20052;-72
2022/03/10 10:22:23;;;;;;;4.25;2.40;;;13.40;99.90;;;;;;5046933;28;20064;-73
2022/03/10 10:24:55;;;;;;;5.88;3.15;;;13.50;99.90;;;;;;5029240;28;20040;-74
2022/03/10 10:27:24;;;;;;;7.72;3.95;;;13.70;99.90;;;;;;5041717;28;20033;-74
2022/03/10 10:29:53;;;;;;;9.63;3.85;;;13.80;99.90;;;;;;5026423;28;20054;-74
2022/03/10 10:32:43;;;;;;;6.47;3.60;;;13.80;99.90;;;;;;5009734;28;20524;-75
2022/03/10 10:35:10;;;;;;;9.50;3.67;;;13.80;99.90;;;;;;5038557;28;20029;-73
2022/03/10 10:37:38;;;;;;;6.97;3.22;;;13.90;99.90;;;;;;5045605;28;20087;-74
2022/03/10 10:40:31;;;;;;;12.15;3.80;;;14.10;99.90;;;;;;5039206;28;20034;-74
2022/03/10 10:42:57;;;;;;;7.80;3.00;;;14.20;99.90;;;;;;5039429;28;20469;-75
2022/03/10 10:45:32;;;;;;;12.25;3.35;;;14.30;99.90;;;;;;5021487;28;20050;-71
2022/03/10 10:47:58;;;;;;;6.95;3.08;;;14.40;99.60;;;;;;5035568;28;20033;-76
2022/03/10 10:50:28;;;;;;;6.80;2.83;;;14.50;99.90;;;;;;5042638;28;20032;-75
2022/03/10 10:52:56;;;;;;;10.27;3.58;;;14.60;98.10;;;;;;5045199;28;20028;-74
2022/03/10 10:55:41;;;;;;;9.73;3.60;;;14.70;98.70;;;;;;5046345;28;20113;-76
2022/03/10 10:58:13;;;;;;;6.90;3.17;;;14.90;98.50;;;;;;5046376;28;20029;-75
2022/03/10 11:00:47;;;;;;;6.35;2.47;;;15.10;97.50;;;;;;5046272;28;20108;-74
2022/03/10 11:03:26;;;;;;;11.45;3.60;;;15.10;96.70;;;;;;5046445;28;20072;-74
2022/03/10 11:05:53;;;;;;;6.07;2.92;;;15.40;97.90;;;;;;5046410;28;20105;-72
2022/03/10 11:08:21;;;;;;;10.88;3.72;;;15.60;97.40;;;;;;5046653;28;20026;-73
2022/03/10 11:10:49;;;;;;;22.38;3.97;;;15.90;96.60;;;;;;5046418;28;20013;-71
2022/03/10 11:13:15;;;;;;;9.38;3.58;;;16.00;95.40;;;;;;5044550;28;20119;-73
2022/03/10 11:15:42;;;;;;;12.50;3.83;;;16.00;94.60;;;;;;5046945;28;20393;-74
2022/03/10 11:18:10;;;;;;;8.48;3.95;;;16.00;94.70;;;;;;5047039;28;20037;-71
2022/03/10 11:20:38;;;;;;;7.75;3.13;;;16.00;94.40;;;;;;5040503;28;20029;-70
2022/03/10 11:23:32;;;;;;;5.93;3.05;;;16.10;93.70;;;;;;5035025;28;20033;-74
2022/03/10 11:26:26;;;;;;;7.75;3.65;;;16.10;93.60;;;;;;5046615;28;20037;-74
2022/03/10 11:28:55;;;;;;;7.93;3.50;;;16.30;92.70;;;;;;5046000;28;20018;-75
2022/03/10 11:31:22;;;;;;;8.13;3.72;;;16.40;92.80;;;;;;5046779;28;20036;-74
2022/03/10 11:33:48;;;;;;;9.65;3.60;;;16.40;93.20;;;;;;5046128;28;20029;-72
2022/03/10 11:36:30;;;;;;;7.90;2.97;;;16.40;92.50;;;;;;5028303;28;20028;-75
2022/03/10 11:38:56;;;;;;;13.23;3.80;;;16.50;91.60;;;;;;5028707;28;20052;-74
2022/03/10 11:41:53;;;;;;;6.00;2.55;;;16.70;92.20;;;;;;5046023;28;20040;-71
2022/03/10 11:44:24;;;;;;;9.70;3.63;;;17.00;90.80;;;;;;5041382;28;20117;-72
2022/03/10 11:46:54;;;;;;;11.68;3.45;;;17.00;90.70;;;;;;5045835;28;20042;-74
2022/03/10 11:49:22;;;;;;;26.58;3.67;;;17.00;91.40;;;;;;5027493;28;20029;-75
2022/03/10 11:51:56;;;;;;;5.57;2.95;;;17.20;91.00;;;;;;5046052;28;20081;-73
2022/03/10 11:54:27;;;;;;;22.95;3.15;;;17.50;91.90;;;;;;5045201;28;20025;-74
2022/03/10 11:56:54;;;;;;;9.10;3.28;;;17.70;89.70;;;;;;5045592;28;20033;-74
2022/03/10 11:59:44;;;;;;;6.03;3.33;;;17.70;89.10;;;;;;5027630;28;20061;-74
2022/03/10 12:02:29;;;;;;;8.88;3.50;;;17.70;89.30;;;;;;5044913;28;20037;-75
2022/03/10 12:04:56;;;;;;;4.30;2.55;;;17.90;87.30;;;;;;5025431;28;20026;-73
2022/03/10 12:07:28;;;;;;;6.20;2.67;;;17.80;86.20;;;;;;5040688;28;20034;-75
2022/03/10 12:10:08;;;;;;;11.05;3.58;;;17.80;87.30;;;;;;5044588;28;20034;-75
2022/03/10 12:12:43;;;;;;;9.55;3.42;;;18.00;87.50;;;;;;5045221;28;20393;-74
2022/03/10 12:15:25;;;;;;;;;;;18.10;86.00;;;;;;5045650;28;20056;-73
2022/03/10 12:17:54;;;;;;;10.13;4.00;;;18.30;84.50;;;;;;5027256;28;19909;-74
2022/03/10 12:20:36;;;;;;;8.48;3.72;;;18.30;86.10;;;;;;5025826;28;20461;-75
2022/03/10 12:23:12;;;;;;;5.80;3.05;;;18.30;86.40;;;;;;5044611;28;20060;-73
2022/03/10 12:26:06;;;;;;;8.25;3.50;;;18.30;85.10;;;;;;5025430;28;20125;-73
2022/03/10 12:28:38;;;;;;;10.02;3.67;;;18.70;85.50;;;;;;5045155;28;20033;-73
2022/03/10 12:31:07;;;;;;;15.38;3.80;;;18.80;85.20;;;;;;5042331;28;20038;-74
2022/03/10 12:33:35;;;;;;;7.20;3.78;;;18.80;86.30;;;;;;5007447;28;20026;-73
2022/03/10 12:36:01;;;;;;;14.13;3.10;;;18.80;85.30;;;;;;5007015;28;20149;-74
2022/03/10 12:38:45;;;;;;;7.15;3.45;;;18.70;81.70;;;;;;5028679;28;20043;-75
2022/03/10 12:41:10;;;;;;;6.53;3.10;;;18.80;82.40;;;;;;5026351;28;20030;-74
2022/03/10 12:43:36;;;;;;;6.68;3.30;;;19.00;82.60;;;;;;5043942;28;20273;-76
2022/03/10 12:46:05;;;;;;;10.43;4.07;;;19.00;82.60;;;;;;5026482;28;20067;-75
2022/03/10 12:48:45;;;;;;;7.80;3.45;;;19.10;83.30;;;;;;5044829;28;20028;-75
2022/03/10 12:51:24;;;;;;;7.07;3.53;;;19.10;84.40;;;;;;5030248;28;20027;-75
2022/03/10 12:53:52;;;;;;;8.05;3.38;;;19.40;85.00;;;;;;5025056;28;20121;-74
2022/03/10 12:56:19;;;;;;;12.55;4.30;;;19.60;85.20;;;;;;5024744;28;20030;-76
2022/03/10 12:58:47;;;;;;;8.30;3.13;;;19.80;82.30;;;;;;5024357;28;20056;-73